sensor_id;sensor_type;location;lat;lon;timestamp;P1;durP1;ratioP1;P2;durP2;ratioP2
5297;SDS011;14738;42.668;23.250;2024-02-21T00:02:03;4.70;;;4.40;;
5297;SDS011;14738;42.668;23.250;2024-02-21T00:04:29;5.20;;;4.80;;
5297;SDS011;14738;42.668;23.250;2024-02-21T00:06:54;5.87;;;5.40;;
5297;SDS011;14738;42.668;23.250;2024-02-21T00:09:20;6.00;;;4.97;;
5297;SDS011;14738;42.668;23.250;2024-02-21T00:11:45;5.57;;;5.07;;
5297;SDS011;14738;42.668;23.250;2024-02-21T00:14:11;4.07;;;3.77;;
5297;SDS011;14738;42.668;23.250;2024-02-21T00:16:36;5.20;;;4.80;;
5297;SDS011;14738;42.668;23.250;2024-02-21T00:19:01;5.10;;;4.70;;
5297;SDS011;14738;42.668;23.250;2024-02-21T00:21:27;5.00;;;4.57;;
5297;SDS011;14738;42.668;23.250;2024-02-21T00:23:52;5.00;;;4.60;;
5297;SDS011;14738;42.668;23.250;2024-02-21T00:26:17;4.80;;;4.40;;
5297;SDS011;14738;42.668;23.250;2024-02-21T00:28:43;4.50;;;4.10;;
5297;SDS011;14738;42.668;23.250;2024-02-21T00:31:08;4.83;;;4.43;;
5297;SDS011;14738;42.668;23.250;2024-02-21T00:33:34;4.93;;;4.53;;
5297;SDS011;14738;42.668;23.250;2024-02-21T00:35:59;5.93;;;5.30;;
5297;SDS011;14738;42.668;23.250;2024-02-21T00:38:24;5.43;;;4.93;;
5297;SDS011;14738;42.668;23.250;2024-02-21T00:40:50;4.97;;;4.57;;
5297;SDS011;14738;42.668;23.250;2024-02-21T00:43:15;5.20;;;4.70;;
5297;SDS011;14738;42.668;23.250;2024-02-21T00:45:40;5.20;;;4.67;;
5297;SDS011;14738;42.668;23.250;2024-02-21T00:48:06;5.30;;;4.50;;
5297;SDS011;14738;42.668;23.250;2024-02-21T00:50:32;5.20;;;4.70;;
5297;SDS011;14738;42.668;23.250;2024-02-21T00:52:57;5.03;;;4.63;;
5297;SDS011;14738;42.668;23.250;2024-02-21T00:55:22;4.87;;;4.47;;
5297;SDS011;14738;42.668;23.250;2024-02-21T00:57:48;6.10;;;5.50;;
5297;SDS011;14738;42.668;23.250;2024-02-21T01:00:13;6.10;;;5.37;;
5297;SDS011;14738;42.668;23.250;2024-02-21T01:02:39;5.23;;;4.73;;
5297;SDS011;14738;42.668;23.250;2024-02-21T01:05:04;6.10;;;4.57;;
5297;SDS011;14738;42.668;23.250;2024-02-21T01:07:30;5.50;;;5.00;;
5297;SDS011;14738;42.668;23.250;2024-02-21T01:09:56;4.63;;;4.33;;
5297;SDS011;14738;42.668;23.250;2024-02-21T01:12:21;5.20;;;4.80;;
5297;SDS011;14738;42.668;23.250;2024-02-21T01:14:46;5.80;;;5.30;;
5297;SDS011;14738;42.668;23.250;2024-02-21T01:17:12;4.33;;;4.03;;
5297;SDS011;14738;42.668;23.250;2024-02-21T01:19:38;4.80;;;4.50;;
5297;SDS011;14738;42.668;23.250;2024-02-21T01:22:03;4.90;;;4.50;;
5297;SDS011;14738;42.668;23.250;2024-02-21T01:24:29;5.40;;;4.90;;
5297;SDS011;14738;42.668;23.250;2024-02-21T01:26:54;5.27;;;4.87;;
5297;SDS011;14738;42.668;23.250;2024-02-21T01:29:20;5.43;;;5.00;;
5297;SDS011;14738;42.668;23.250;2024-02-21T01:31:45;5.07;;;4.67;;
5297;SDS011;14738;42.668;23.250;2024-02-21T01:34:10;5.00;;;4.60;;
5297;SDS011;14738;42.668;23.250;2024-02-21T01:36:36;5.57;;;5.17;;
5297;SDS011;14738;42.668;23.250;2024-02-21T01:39:01;6.00;;;5.50;;
5297;SDS011;14738;42.668;23.250;2024-02-21T01:41:29;5.83;;;5.23;;
5297;SDS011;14738;42.668;23.250;2024-02-21T01:43:55;6.30;;;5.80;;
5297;SDS011;14738;42.668;23.250;2024-02-21T01:46:20;6.43;;;5.83;;
5297;SDS011;14738;42.668;23.250;2024-02-21T01:48:45;6.03;;;5.43;;
5297;SDS011;14738;42.668;23.250;2024-02-21T01:51:11;7.27;;;6.57;;
5297;SDS011;14738;42.668;23.250;2024-02-21T01:53:38;7.93;;;7.10;;
5297;SDS011;14738;42.668;23.250;2024-02-21T01:56:08;9.03;;;8.13;;
5297;SDS011;14738;42.668;23.250;2024-02-21T01:58:34;8.73;;;7.83;;
5297;SDS011;14738;42.668;23.250;2024-02-21T02:01:02;9.30;;;7.97;;
5297;SDS011;14738;42.668;23.250;2024-02-21T02:03:28;9.57;;;8.07;;
5297;SDS011;14738;42.668;23.250;2024-02-21T02:05:55;11.40;;;8.60;;
5297;SDS011;14738;42.668;23.250;2024-02-21T02:08:20;10.60;;;8.40;;
5297;SDS011;14738;42.668;23.250;2024-02-21T02:10:48;9.90;;;8.30;;
5297;SDS011;14738;42.668;23.250;2024-02-21T02:13:14;8.67;;;7.73;;
5297;SDS011;14738;42.668;23.250;2024-02-21T02:15:40;9.63;;;8.67;;
5297;SDS011;14738;42.668;23.250;2024-02-21T02:18:13;9.83;;;8.50;;
5297;SDS011;14738;42.668;23.250;2024-02-21T02:20:39;9.30;;;8.13;;
5297;SDS011;14738;42.668;23.250;2024-02-21T02:25:52;10.63;;;9.40;;
5297;SDS011;14738;42.668;23.250;2024-02-21T02:28:18;10.30;;;9.30;;
5297;SDS011;14738;42.668;23.250;2024-02-21T02:30:44;10.90;;;8.77;;
5297;SDS011;14738;42.668;23.250;2024-02-21T02:33:10;12.43;;;9.53;;
5297;SDS011;14738;42.668;23.250;2024-02-21T02:35:35;11.63;;;9.20;;
5297;SDS011;14738;42.668;23.250;2024-02-21T02:38:02;10.00;;;8.43;;
5297;SDS011;14738;42.668;23.250;2024-02-21T02:40:28;9.60;;;8.17;;
5297;SDS011;14738;42.668;23.250;2024-02-21T02:42:53;11.00;;;8.90;;
5297;SDS011;14738;42.668;23.250;2024-02-21T02:45:20;10.03;;;9.03;;
5297;SDS011;14738;42.668;23.250;2024-02-21T02:47:48;12.63;;;9.50;;
5297;SDS011;14738;42.668;23.250;2024-02-21T02:50:13;9.60;;;8.17;;
5297;SDS011;14738;42.668;23.250;2024-02-21T02:52:39;11.70;;;10.00;;
5297;SDS011;14738;42.668;23.250;2024-02-21T02:55:05;10.67;;;9.57;;
5297;SDS011;14738;42.668;23.250;2024-02-21T02:57:31;10.53;;;8.77;;
5297;SDS011;14738;42.668;23.250;2024-02-21T02:59:56;11.77;;;9.60;;
5297;SDS011;14738;42.668;23.250;2024-02-21T03:02:22;10.37;;;9.27;;
5297;SDS011;14738;42.668;23.250;2024-02-21T03:04:48;12.20;;;9.70;;
5297;SDS011;14738;42.668;23.250;2024-02-21T03:07:14;13.10;;;9.87;;
5297;SDS011;14738;42.668;23.250;2024-02-21T03:09:39;10.67;;;8.77;;
5297;SDS011;14738;42.668;23.250;2024-02-21T03:12:05;10.77;;;9.00;;
5297;SDS011;14738;42.668;23.250;2024-02-21T03:14:31;11.13;;;9.80;;
5297;SDS011;14738;42.668;23.250;2024-02-21T03:17:01;10.33;;;9.20;;
5297;SDS011;14738;42.668;23.250;2024-02-21T03:19:27;12.10;;;9.00;;
5297;SDS011;14738;42.668;23.250;2024-02-21T03:21:53;13.03;;;10.20;;
5297;SDS011;14738;42.668;23.250;2024-02-21T03:24:18;12.67;;;9.27;;
5297;SDS011;14738;42.668;23.250;2024-02-21T03:26:44;10.90;;;8.93;;
5297;SDS011;14738;42.668;23.250;2024-02-21T03:29:11;10.87;;;9.60;;
5297;SDS011;14738;42.668;23.250;2024-02-21T03:31:37;13.13;;;10.40;;
5297;SDS011;14738;42.668;23.250;2024-02-21T03:34:02;10.50;;;9.30;;
5297;SDS011;14738;42.668;23.250;2024-02-21T03:36:28;12.10;;;9.37;;
5297;SDS011;14738;42.668;23.250;2024-02-21T03:38:56;13.53;;;10.40;;
5297;SDS011;14738;42.668;23.250;2024-02-21T03:41:21;12.97;;;10.00;;
5297;SDS011;14738;42.668;23.250;2024-02-21T03:43:47;11.70;;;9.77;;
5297;SDS011;14738;42.668;23.250;2024-02-21T03:46:12;13.07;;;11.27;;
5297;SDS011;14738;42.668;23.250;2024-02-21T03:48:38;13.50;;;11.57;;
5297;SDS011;14738;42.668;23.250;2024-02-21T03:51:03;15.80;;;12.60;;
5297;SDS011;14738;42.668;23.250;2024-02-21T03:53:30;12.67;;;10.60;;
5297;SDS011;14738;42.668;23.250;2024-02-21T03:55:55;15.37;;;12.00;;
5297;SDS011;14738;42.668;23.250;2024-02-21T03:58:21;19.00;;;13.20;;
5297;SDS011;14738;42.668;23.250;2024-02-21T04:00:47;18.47;;;13.93;;
5297;SDS011;14738;42.668;23.250;2024-02-21T04:03:12;25.67;;;18.70;;
5297;SDS011;14738;42.668;23.250;2024-02-21T04:05:38;26.10;;;19.77;;
5297;SDS011;14738;42.668;23.250;2024-02-21T04:08:06;24.87;;;18.80;;
5297;SDS011;14738;42.668;23.250;2024-02-21T04:10:33;23.87;;;17.27;;
5297;SDS011;14738;42.668;23.250;2024-02-21T04:12:58;18.80;;;14.53;;
5297;SDS011;14738;42.668;23.250;2024-02-21T04:15:23;19.23;;;14.53;;
5297;SDS011;14738;42.668;23.250;2024-02-21T04:17:49;16.97;;;12.57;;
5297;SDS011;14738;42.668;23.250;2024-02-21T04:20:16;17.53;;;12.27;;
5297;SDS011;14738;42.668;23.250;2024-02-21T04:22:45;16.87;;;12.70;;
5297;SDS011;14738;42.668;23.250;2024-02-21T04:25:11;15.30;;;11.90;;
5297;SDS011;14738;42.668;23.250;2024-02-21T04:27:37;15.03;;;12.27;;
5297;SDS011;14738;42.668;23.250;2024-02-21T04:30:03;14.90;;;11.70;;
5297;SDS011;14738;42.668;23.250;2024-02-21T04:45:07;17.57;;;13.43;;
5297;SDS011;14738;42.668;23.250;2024-02-21T04:47:33;17.83;;;12.57;;
5297;SDS011;14738;42.668;23.250;2024-02-21T04:50:09;17.33;;;12.67;;
5297;SDS011;14738;42.668;23.250;2024-02-21T04:52:34;15.27;;;11.67;;
5297;SDS011;14738;42.668;23.250;2024-02-21T04:54:59;16.87;;;12.80;;
5297;SDS011;14738;42.668;23.250;2024-02-21T04:57:25;18.20;;;13.23;;
5297;SDS011;14738;42.668;23.250;2024-02-21T04:59:50;16.93;;;12.73;;
5297;SDS011;14738;42.668;23.250;2024-02-21T05:02:16;16.20;;;12.00;;
5297;SDS011;14738;42.668;23.250;2024-02-21T05:04:44;16.23;;;12.20;;
5297;SDS011;14738;42.668;23.250;2024-02-21T05:07:09;19.30;;;13.27;;
5297;SDS011;14738;42.668;23.250;2024-02-21T05:09:36;17.63;;;13.10;;
5297;SDS011;14738;42.668;23.250;2024-02-21T05:12:02;15.47;;;12.20;;
5297;SDS011;14738;42.668;23.250;2024-02-21T05:14:28;15.17;;;12.00;;
5297;SDS011;14738;42.668;23.250;2024-02-21T05:16:53;17.13;;;13.20;;
5297;SDS011;14738;42.668;23.250;2024-02-21T05:19:19;14.73;;;11.93;;
5297;SDS011;14738;42.668;23.250;2024-02-21T05:21:44;12.83;;;10.87;;
5297;SDS011;14738;42.668;23.250;2024-02-21T05:24:10;11.97;;;10.60;;
5297;SDS011;14738;42.668;23.250;2024-02-21T05:26:35;13.30;;;11.30;;
5297;SDS011;14738;42.668;23.250;2024-02-21T05:29:00;11.27;;;10.07;;
5297;SDS011;14738;42.668;23.250;2024-02-21T05:31:26;11.57;;;9.93;;
5297;SDS011;14738;42.668;23.250;2024-02-21T05:34:07;13.50;;;10.80;;
5297;SDS011;14738;42.668;23.250;2024-02-21T05:36:33;11.73;;;10.53;;
5297;SDS011;14738;42.668;23.250;2024-02-21T05:38:59;11.57;;;10.37;;
5297;SDS011;14738;42.668;23.250;2024-02-21T05:41:24;14.90;;;10.93;;
5297;SDS011;14738;42.668;23.250;2024-02-21T05:43:49;15.40;;;11.60;;
5297;SDS011;14738;42.668;23.250;2024-02-21T05:46:18;14.27;;;11.63;;
5297;SDS011;14738;42.668;23.250;2024-02-21T05:48:44;15.53;;;10.97;;
5297;SDS011;14738;42.668;23.250;2024-02-21T05:51:09;11.70;;;10.20;;
5297;SDS011;14738;42.668;23.250;2024-02-21T05:53:35;10.97;;;9.80;;
5297;SDS011;14738;42.668;23.250;2024-02-21T05:56:01;11.30;;;10.00;;
5297;SDS011;14738;42.668;23.250;2024-02-21T05:58:26;11.03;;;9.93;;
5297;SDS011;14738;42.668;23.250;2024-02-21T06:00:52;12.83;;;10.53;;
5297;SDS011;14738;42.668;23.250;2024-02-21T06:03:19;14.33;;;10.03;;
5297;SDS011;14738;42.668;23.250;2024-02-21T06:05:44;11.40;;;10.20;;
5297;SDS011;14738;42.668;23.250;2024-02-21T06:08:10;13.50;;;10.60;;
5297;SDS011;14738;42.668;23.250;2024-02-21T06:10:35;12.17;;;10.37;;
5297;SDS011;14738;42.668;23.250;2024-02-21T06:13:00;13.77;;;10.53;;
5297;SDS011;14738;42.668;23.250;2024-02-21T06:15:26;14.60;;;10.57;;
5297;SDS011;14738;42.668;23.250;2024-02-21T06:17:51;12.47;;;9.90;;
5297;SDS011;14738;42.668;23.250;2024-02-21T06:20:17;13.07;;;10.10;;
5297;SDS011;14738;42.668;23.250;2024-02-21T06:22:42;12.13;;;10.20;;
5297;SDS011;14738;42.668;23.250;2024-02-21T06:25:07;18.40;;;11.40;;
5297;SDS011;14738;42.668;23.250;2024-02-21T06:27:33;13.07;;;10.47;;
5297;SDS011;14738;42.668;23.250;2024-02-21T06:29:58;12.83;;;10.50;;
5297;SDS011;14738;42.668;23.250;2024-02-21T06:32:24;10.73;;;9.60;;
5297;SDS011;14738;42.668;23.250;2024-02-21T06:40:40;15.33;;;11.40;;
5297;SDS011;14738;42.668;23.250;2024-02-21T06:43:06;14.77;;;11.70;;
5297;SDS011;14738;42.668;23.250;2024-02-21T06:45:32;12.80;;;10.90;;
5297;SDS011;14738;42.668;23.250;2024-02-21T06:47:57;12.53;;;10.70;;
5297;SDS011;14738;42.668;23.250;2024-02-21T06:50:22;16.17;;;13.00;;
5297;SDS011;14738;42.668;23.250;2024-02-21T06:52:48;15.80;;;11.90;;
5297;SDS011;14738;42.668;23.250;2024-02-21T06:55:13;13.93;;;11.80;;
5297;SDS011;14738;42.668;23.250;2024-02-21T06:57:38;13.43;;;11.23;;
5297;SDS011;14738;42.668;23.250;2024-02-21T07:00:04;13.30;;;11.90;;
5297;SDS011;14738;42.668;23.250;2024-02-21T07:02:33;13.50;;;12.10;;
5297;SDS011;14738;42.668;23.250;2024-02-21T07:04:58;14.97;;;12.10;;
5297;SDS011;14738;42.668;23.250;2024-02-21T07:07:24;14.17;;;11.17;;
5297;SDS011;14738;42.668;23.250;2024-02-21T07:09:49;15.00;;;12.03;;
5297;SDS011;14738;42.668;23.250;2024-02-21T07:12:15;14.90;;;11.50;;
5297;SDS011;14738;42.668;23.250;2024-02-21T07:14:40;14.60;;;12.20;;
5297;SDS011;14738;42.668;23.250;2024-02-21T07:17:05;13.70;;;11.30;;
5297;SDS011;14738;42.668;23.250;2024-02-21T07:19:31;17.37;;;13.17;;
5297;SDS011;14738;42.668;23.250;2024-02-21T07:21:56;13.47;;;11.63;;
5297;SDS011;14738;42.668;23.250;2024-02-21T07:24:22;14.50;;;11.70;;
5297;SDS011;14738;42.668;23.250;2024-02-21T07:26:47;16.63;;;12.00;;
5297;SDS011;14738;42.668;23.250;2024-02-21T07:29:13;16.43;;;12.77;;
5297;SDS011;14738;42.668;23.250;2024-02-21T07:31:41;13.07;;;11.00;;
5297;SDS011;14738;42.668;23.250;2024-02-21T07:34:08;13.87;;;12.33;;
5297;SDS011;14738;42.668;23.250;2024-02-21T07:36:33;20.17;;;12.33;;
5297;SDS011;14738;42.668;23.250;2024-02-21T07:38:59;15.80;;;12.23;;
5297;SDS011;14738;42.668;23.250;2024-02-21T07:41:27;14.00;;;12.30;;
5297;SDS011;14738;42.668;23.250;2024-02-21T07:43:55;12.67;;;10.80;;
5297;SDS011;14738;42.668;23.250;2024-02-21T07:46:20;12.90;;;11.60;;
5297;SDS011;14738;42.668;23.250;2024-02-21T07:48:46;17.47;;;14.33;;
5297;SDS011;14738;42.668;23.250;2024-02-21T07:51:13;16.23;;;11.60;;
5297;SDS011;14738;42.668;23.250;2024-02-21T07:53:38;15.17;;;12.30;;
5297;SDS011;14738;42.668;23.250;2024-02-21T07:56:09;14.20;;;11.80;;
5297;SDS011;14738;42.668;23.250;2024-02-21T07:58:36;13.27;;;11.80;;
5297;SDS011;14738;42.668;23.250;2024-02-21T08:01:01;12.97;;;11.43;;
5297;SDS011;14738;42.668;23.250;2024-02-21T08:03:26;14.30;;;11.40;;
5297;SDS011;14738;42.668;23.250;2024-02-21T08:05:52;14.00;;;12.10;;
5297;SDS011;14738;42.668;23.250;2024-02-21T08:08:17;14.03;;;11.03;;
5297;SDS011;14738;42.668;23.250;2024-02-21T08:10:45;16.80;;;13.80;;
5297;SDS011;14738;42.668;23.250;2024-02-21T08:13:10;13.80;;;11.67;;
5297;SDS011;14738;42.668;23.250;2024-02-21T08:15:36;15.70;;;12.73;;
5297;SDS011;14738;42.668;23.250;2024-02-21T08:18:04;15.00;;;12.50;;
5297;SDS011;14738;42.668;23.250;2024-02-21T08:20:29;12.60;;;11.23;;
5297;SDS011;14738;42.668;23.250;2024-02-21T08:22:54;13.80;;;11.77;;
5297;SDS011;14738;42.668;23.250;2024-02-21T08:25:20;11.77;;;10.53;;
5297;SDS011;14738;42.668;23.250;2024-02-21T08:27:45;11.90;;;10.50;;
5297;SDS011;14738;42.668;23.250;2024-02-21T08:30:11;15.57;;;12.13;;
5297;SDS011;14738;42.668;23.250;2024-02-21T08:32:37;13.23;;;11.40;;
5297;SDS011;14738;42.668;23.250;2024-02-21T08:35:02;13.50;;;12.10;;
5297;SDS011;14738;42.668;23.250;2024-02-21T08:37:28;12.73;;;11.40;;
5297;SDS011;14738;42.668;23.250;2024-02-21T08:39:53;13.60;;;10.90;;
5297;SDS011;14738;42.668;23.250;2024-02-21T08:42:19;11.97;;;10.70;;
5297;SDS011;14738;42.668;23.250;2024-02-21T08:44:44;11.43;;;10.23;;
5297;SDS011;14738;42.668;23.250;2024-02-21T08:47:10;12.60;;;10.63;;
5297;SDS011;14738;42.668;23.250;2024-02-21T08:49:36;11.10;;;10.00;;
5297;SDS011;14738;42.668;23.250;2024-02-21T08:52:02;12.30;;;11.00;;
5297;SDS011;14738;42.668;23.250;2024-02-21T08:54:28;11.23;;;10.03;;
5297;SDS011;14738;42.668;23.250;2024-02-21T08:56:54;11.30;;;10.17;;
5297;SDS011;14738;42.668;23.250;2024-02-21T08:59:19;13.13;;;11.23;;
5297;SDS011;14738;42.668;23.250;2024-02-21T09:01:45;12.07;;;10.87;;
5297;SDS011;14738;42.668;23.250;2024-02-21T09:04:11;11.37;;;10.27;;
5297;SDS011;14738;42.668;23.250;2024-02-21T09:06:37;11.43;;;10.27;;
5297;SDS011;14738;42.668;23.250;2024-02-21T09:09:07;11.50;;;10.30;;
5297;SDS011;14738;42.668;23.250;2024-02-21T09:11:33;11.60;;;9.40;;
5297;SDS011;14738;42.668;23.250;2024-02-21T09:13:59;10.77;;;9.67;;
5297;SDS011;14738;42.668;23.250;2024-02-21T09:16:24;14.47;;;10.30;;
5297;SDS011;14738;42.668;23.250;2024-02-21T09:18:50;11.03;;;9.90;;
5297;SDS011;14738;42.668;23.250;2024-02-21T09:21:15;11.17;;;9.90;;
5297;SDS011;14738;42.668;23.250;2024-02-21T09:23:40;20.23;;;9.93;;
5297;SDS011;14738;42.668;23.250;2024-02-21T09:26:06;11.67;;;10.47;;
5297;SDS011;14738;42.668;23.250;2024-02-21T09:28:31;11.57;;;8.87;;
5297;SDS011;14738;42.668;23.250;2024-02-21T09:30:58;9.63;;;8.67;;
5297;SDS011;14738;42.668;23.250;2024-02-21T09:33:23;10.17;;;9.17;;
5297;SDS011;14738;42.668;23.250;2024-02-21T09:35:49;10.00;;;9.10;;
5297;SDS011;14738;42.668;23.250;2024-02-21T09:38:14;13.53;;;10.03;;
5297;SDS011;14738;42.668;23.250;2024-02-21T09:40:40;9.37;;;8.40;;
5297;SDS011;14738;42.668;23.250;2024-02-21T09:43:07;10.90;;;9.77;;
5297;SDS011;14738;42.668;23.250;2024-02-21T09:45:33;10.63;;;9.60;;
5297;SDS011;14738;42.668;23.250;2024-02-21T09:50:36;14.83;;;10.33;;
5297;SDS011;14738;42.668;23.250;2024-02-21T09:53:05;11.17;;;10.07;;
5297;SDS011;14738;42.668;23.250;2024-02-21T09:55:32;10.53;;;9.43;;
5297;SDS011;14738;42.668;23.250;2024-02-21T09:57:59;10.13;;;9.23;;
5297;SDS011;14738;42.668;23.250;2024-02-21T10:00:26;11.17;;;9.93;;
5297;SDS011;14738;42.668;23.250;2024-02-21T10:02:53;9.30;;;8.50;;
5297;SDS011;14738;42.668;23.250;2024-02-21T10:05:19;9.93;;;9.03;;
5297;SDS011;14738;42.668;23.250;2024-02-21T10:07:44;9.80;;;8.83;;
5297;SDS011;14738;42.668;23.250;2024-02-21T10:10:09;11.07;;;9.97;;
5297;SDS011;14738;42.668;23.250;2024-02-21T10:12:35;9.40;;;8.37;;
5297;SDS011;14738;42.668;23.250;2024-02-21T10:15:04;10.40;;;9.40;;
5297;SDS011;14738;42.668;23.250;2024-02-21T10:17:31;11.00;;;9.90;;
5297;SDS011;14738;42.668;23.250;2024-02-21T10:20:07;9.60;;;8.70;;
5297;SDS011;14738;42.668;23.250;2024-02-21T10:22:34;9.17;;;8.30;;
5297;SDS011;14738;42.668;23.250;2024-02-21T10:25:10;9.53;;;8.63;;
5297;SDS011;14738;42.668;23.250;2024-02-21T10:27:37;9.80;;;8.90;;
5297;SDS011;14738;42.668;23.250;2024-02-21T10:30:04;9.83;;;8.87;;
5297;SDS011;14738;42.668;23.250;2024-02-21T10:32:32;10.63;;;9.60;;
5297;SDS011;14738;42.668;23.250;2024-02-21T10:35:01;9.27;;;8.37;;
5297;SDS011;14738;42.668;23.250;2024-02-21T10:37:28;8.57;;;7.67;;
5297;SDS011;14738;42.668;23.250;2024-02-21T10:39:54;7.90;;;7.20;;
5297;SDS011;14738;42.668;23.250;2024-02-21T10:42:21;7.37;;;6.67;;
5297;SDS011;14738;42.668;23.250;2024-02-21T10:44:46;7.27;;;6.60;;
5297;SDS011;14738;42.668;23.250;2024-02-21T10:47:16;8.53;;;7.63;;
5297;SDS011;14738;42.668;23.250;2024-02-21T10:49:46;8.13;;;7.43;;
5297;SDS011;14738;42.668;23.250;2024-02-21T10:55:03;6.47;;;5.97;;
5297;SDS011;14738;42.668;23.250;2024-02-21T10:57:33;6.70;;;6.07;;
5297;SDS011;14738;42.668;23.250;2024-02-21T10:59:59;6.70;;;5.90;;
5297;SDS011;14738;42.668;23.250;2024-02-21T11:02:27;6.30;;;5.67;;
5297;SDS011;14738;42.668;23.250;2024-02-21T11:04:55;6.53;;;5.87;;
5297;SDS011;14738;42.668;23.250;2024-02-21T11:07:22;7.10;;;6.30;;
5297;SDS011;14738;42.668;23.250;2024-02-21T11:09:51;6.33;;;5.73;;
5297;SDS011;14738;42.668;23.250;2024-02-21T11:12:20;6.13;;;5.63;;
5297;SDS011;14738;42.668;23.250;2024-02-21T11:14:46;7.17;;;6.47;;
5297;SDS011;14738;42.668;23.250;2024-02-21T11:17:15;5.97;;;5.47;;
5297;SDS011;14738;42.668;23.250;2024-02-21T11:19:44;7.50;;;5.40;;
5297;SDS011;14738;42.668;23.250;2024-02-21T11:22:19;5.57;;;5.17;;
5297;SDS011;14738;42.668;23.250;2024-02-21T11:24:49;6.00;;;5.40;;
5297;SDS011;14738;42.668;23.250;2024-02-21T11:27:16;6.20;;;5.70;;
5297;SDS011;14738;42.668;23.250;2024-02-21T11:29:49;6.37;;;5.77;;
5297;SDS011;14738;42.668;23.250;2024-02-21T11:32:19;5.50;;;5.00;;
5297;SDS011;14738;42.668;23.250;2024-02-21T11:34:58;6.90;;;6.03;;
5297;SDS011;14738;42.668;23.250;2024-02-21T11:37:27;5.50;;;5.10;;
5297;SDS011;14738;42.668;23.250;2024-02-21T11:39:53;6.00;;;5.50;;
5297;SDS011;14738;42.668;23.250;2024-02-21T11:42:19;6.50;;;5.83;;
5297;SDS011;14738;42.668;23.250;2024-02-21T11:44:45;4.97;;;4.57;;
5297;SDS011;14738;42.668;23.250;2024-02-21T11:47:11;5.30;;;4.90;;
5297;SDS011;14738;42.668;23.250;2024-02-21T11:49:37;5.60;;;5.17;;
5297;SDS011;14738;42.668;23.250;2024-02-21T11:52:06;8.60;;;5.50;;
5297;SDS011;14738;42.668;23.250;2024-02-21T11:54:33;5.43;;;4.83;;
5297;SDS011;14738;42.668;23.250;2024-02-21T11:56:59;6.03;;;5.53;;
5297;SDS011;14738;42.668;23.250;2024-02-21T11:59:25;5.50;;;5.00;;
5297;SDS011;14738;42.668;23.250;2024-02-21T12:01:52;10.93;;;8.47;;
5297;SDS011;14738;42.668;23.250;2024-02-21T12:04:18;8.87;;;7.10;;
5297;SDS011;14738;42.668;23.250;2024-02-21T12:06:45;7.80;;;7.10;;
5297;SDS011;14738;42.668;23.250;2024-02-21T12:09:14;7.17;;;6.57;;
5297;SDS011;14738;42.668;23.250;2024-02-21T12:11:43;5.90;;;5.40;;
5297;SDS011;14738;42.668;23.250;2024-02-21T12:14:09;5.90;;;5.10;;
5297;SDS011;14738;42.668;23.250;2024-02-21T12:16:35;7.57;;;6.13;;
5297;SDS011;14738;42.668;23.250;2024-02-21T12:19:04;7.03;;;6.07;;
5297;SDS011;14738;42.668;23.250;2024-02-21T12:21:30;6.20;;;5.60;;
5297;SDS011;14738;42.668;23.250;2024-02-21T12:23:58;6.27;;;5.67;;
5297;SDS011;14738;42.668;23.250;2024-02-21T12:26:24;7.13;;;6.17;;
5297;SDS011;14738;42.668;23.250;2024-02-21T12:28:50;5.97;;;5.47;;
5297;SDS011;14738;42.668;23.250;2024-02-21T12:31:16;6.17;;;5.57;;
5297;SDS011;14738;42.668;23.250;2024-02-21T12:33:41;12.90;;;11.70;;
5297;SDS011;14738;42.668;23.250;2024-02-21T12:36:07;10.30;;;8.17;;
5297;SDS011;14738;42.668;23.250;2024-02-21T12:38:34;6.60;;;5.77;;
5297;SDS011;14738;42.668;23.250;2024-02-21T12:41:02;6.40;;;5.80;;
5297;SDS011;14738;42.668;23.250;2024-02-21T12:43:28;7.70;;;6.67;;
5297;SDS011;14738;42.668;23.250;2024-02-21T12:45:53;6.80;;;6.20;;
5297;SDS011;14738;42.668;23.250;2024-02-21T12:48:19;7.20;;;6.60;;
5297;SDS011;14738;42.668;23.250;2024-02-21T12:50:53;8.60;;;7.53;;
5297;SDS011;14738;42.668;23.250;2024-02-21T12:53:19;7.83;;;7.03;;
5297;SDS011;14738;42.668;23.250;2024-02-21T12:55:46;7.40;;;6.70;;
5297;SDS011;14738;42.668;23.250;2024-02-21T12:58:13;6.83;;;6.23;;
5297;SDS011;14738;42.668;23.250;2024-02-21T13:00:39;6.87;;;6.23;;
5297;SDS011;14738;42.668;23.250;2024-02-21T13:03:05;6.57;;;5.90;;
5297;SDS011;14738;42.668;23.250;2024-02-21T13:05:30;5.77;;;5.20;;
5297;SDS011;14738;42.668;23.250;2024-02-21T13:07:57;5.60;;;5.20;;
5297;SDS011;14738;42.668;23.250;2024-02-21T13:10:23;7.30;;;6.60;;
5297;SDS011;14738;42.668;23.250;2024-02-21T13:12:48;6.90;;;6.17;;
5297;SDS011;14738;42.668;23.250;2024-02-21T13:15:14;8.13;;;7.33;;
5297;SDS011;14738;42.668;23.250;2024-02-21T13:17:41;7.10;;;6.50;;
5297;SDS011;14738;42.668;23.250;2024-02-21T13:20:06;10.80;;;7.30;;
5297;SDS011;14738;42.668;23.250;2024-02-21T13:22:33;7.57;;;6.87;;
5297;SDS011;14738;42.668;23.250;2024-02-21T13:25:00;6.63;;;6.03;;
5297;SDS011;14738;42.668;23.250;2024-02-21T13:27:25;8.07;;;7.27;;
5297;SDS011;14738;42.668;23.250;2024-02-21T13:29:51;8.37;;;7.57;;
5297;SDS011;14738;42.668;23.250;2024-02-21T13:32:16;7.70;;;6.83;;
5297;SDS011;14738;42.668;23.250;2024-02-21T13:34:41;6.27;;;5.77;;
5297;SDS011;14738;42.668;23.250;2024-02-21T13:37:07;7.30;;;6.70;;
5297;SDS011;14738;42.668;23.250;2024-02-21T13:39:34;5.60;;;5.20;;
5297;SDS011;14738;42.668;23.250;2024-02-21T13:42:00;5.80;;;5.30;;
5297;SDS011;14738;42.668;23.250;2024-02-21T13:44:26;5.53;;;5.13;;
5297;SDS011;14738;42.668;23.250;2024-02-21T13:46:51;7.97;;;6.67;;
5297;SDS011;14738;42.668;23.250;2024-02-21T13:49:16;8.77;;;7.87;;
5297;SDS011;14738;42.668;23.250;2024-02-21T13:51:42;6.30;;;5.70;;
5297;SDS011;14738;42.668;23.250;2024-02-21T13:54:09;7.10;;;6.37;;
5297;SDS011;14738;42.668;23.250;2024-02-21T13:56:36;6.10;;;5.60;;
5297;SDS011;14738;42.668;23.250;2024-02-21T14:01:27;7.68;;;6.97;;
5297;SDS011;14738;42.668;23.250;2024-02-21T14:03:56;6.87;;;6.27;;
5297;SDS011;14738;42.668;23.250;2024-02-21T14:06:22;7.10;;;6.07;;
5297;SDS011;14738;42.668;23.250;2024-02-21T14:08:47;7.93;;;6.57;;
5297;SDS011;14738;42.668;23.250;2024-02-21T14:11:14;6.63;;;6.03;;
5297;SDS011;14738;42.668;23.250;2024-02-21T14:13:39;7.53;;;6.80;;
5297;SDS011;14738;42.668;23.250;2024-02-21T14:16:09;7.50;;;6.80;;
5297;SDS011;14738;42.668;23.250;2024-02-21T14:21:02;6.55;;;5.95;;
5297;SDS011;14738;42.668;23.250;2024-02-21T14:23:27;10.10;;;6.70;;
5297;SDS011;14738;42.668;23.250;2024-02-21T14:25:53;8.50;;;7.70;;
5297;SDS011;14738;42.668;23.250;2024-02-21T14:28:18;8.77;;;6.20;;
5297;SDS011;14738;42.668;23.250;2024-02-21T14:30:44;7.37;;;6.63;;
5297;SDS011;14738;42.668;23.250;2024-02-21T14:33:09;7.70;;;6.37;;
5297;SDS011;14738;42.668;23.250;2024-02-21T14:35:34;9.10;;;7.90;;
5297;SDS011;14738;42.668;23.250;2024-02-21T14:38:00;9.63;;;8.60;;
5297;SDS011;14738;42.668;23.250;2024-02-21T14:40:26;8.13;;;6.83;;
5297;SDS011;14738;42.668;23.250;2024-02-21T14:42:51;16.00;;;6.23;;
5297;SDS011;14738;42.668;23.250;2024-02-21T14:45:17;7.40;;;6.70;;
5297;SDS011;14738;42.668;23.250;2024-02-21T14:47:42;7.13;;;6.53;;
5297;SDS011;14738;42.668;23.250;2024-02-21T14:50:08;7.20;;;6.53;;
5297;SDS011;14738;42.668;23.250;2024-02-21T14:52:34;6.87;;;6.17;;
5297;SDS011;14738;42.668;23.250;2024-02-21T14:55:00;8.10;;;7.27;;
5297;SDS011;14738;42.668;23.250;2024-02-21T14:57:27;9.40;;;6.67;;
5297;SDS011;14738;42.668;23.250;2024-02-21T14:59:53;8.50;;;7.40;;
5297;SDS011;14738;42.668;23.250;2024-02-21T15:02:21;9.20;;;7.30;;